Time;durP1;ratioP1;P1;durP2;ratioP2;P2;SDS_P1;SDS_P2;PMS_P1;PMS_P2;Temp;Humidity;BMP_temperature;BMP_pressure;BME280_temperature;BME280_humidity;BME280_pressure;Samples;Min_cycle;Max_cycle;Signal;HPM_P1;HPM_P2
2022/04/22 00:01:16;;;;;;;12.73;9.27;;;8.20;99.90;;;;;;4975315;28;22401;-87
2022/04/22 00:03:42;;;;;;;16.70;9.68;;;8.20;99.90;;;;;;4978564;28;20192;-85
2022/04/22 00:06:08;;;;;;;11.23;8.53;;;8.10;99.90;;;;;;4995001;28;20680;-87
2022/04/22 00:08:34;;;;;;;21.50;11.20;;;8.00;99.90;;;;;;4976858;28;20283;-86
2022/04/22 00:13:44;;;;;;;19.98;11.88;;;7.90;99.90;;;;;;4978376;28;20222;-84
2022/04/22 00:16:11;;;;;;;17.10;12.30;;;7.90;99.90;;;;;;4978833;28;20176;-85
2022/04/22 00:18:37;;;;;;;16.40;11.30;;;7.90;99.90;;;;;;4973946;28;20210;-85
2022/04/22 00:21:03;;;;;;;17.50;11.37;;;;;;;;;;4974149;28;20176;-83
2022/04/22 00:23:29;;;;;;;19.02;12.15;;;;;;;;;;4974289;28;20564;-80
2022/04/22 00:25:56;;;;;;;15.10;11.43;;;7.80;99.90;;;;;;4988890;28;20191;-83
2022/04/22 00:28:22;;;;;;;21.95;11.45;;;7.60;99.90;;;;;;4967507;28;20230;-87
2022/04/22 00:30:47;;;;;;;21.42;13.02;;;7.40;99.90;;;;;;4971211;28;20219;-84
2022/04/22 00:33:14;;;;;;;19.57;13.10;;;7.60;99.90;;;;;;4970509;28;20383;-86
2022/04/22 00:35:40;;;;;;;18.02;11.45;;;7.60;99.90;;;;;;4966332;28;20773;-84
2022/04/22 00:38:06;;;;;;;23.73;13.47;;;;;;;;;;4968877;28;20231;-85
2022/04/22 00:40:32;;;;;;;19.95;12.05;;;7.60;99.90;;;;;;4967942;28;20529;-84
2022/04/22 00:42:59;;;;;;;19.77;13.20;;;;;;;;;;4967593;28;20294;-85
2022/04/22 00:45:24;;;;;;;21.63;12.82;;;7.50;99.90;;;;;;4967285;28;20184;-85
2022/04/22 00:47:50;;;;;;;20.00;12.00;;;;;;;;;;4964630;28;20230;-85
2022/04/22 00:50:16;;;;;;;20.73;13.75;;;7.50;99.90;;;;;;4961432;28;20538;-83
2022/04/22 00:52:42;;;;;;;19.43;13.30;;;;;;;;;;4970984;28;20190;-84
2022/04/22 00:55:09;;;;;;;17.92;10.93;;;7.30;99.90;;;;;;4969890;28;21476;-86
2022/04/22 00:57:35;;;;;;;16.38;10.98;;;7.10;99.90;;;;;;4971627;28;20208;-84
2022/04/22 01:00:03;;;;;;;15.40;10.53;;;6.80;99.90;;;;;;4968983;28;20188;-81
2022/04/22 01:02:29;;;;;;;17.50;10.65;;;6.70;99.90;;;;;;4984468;28;20445;-85
2022/04/22 01:10:24;;;;;;;19.65;11.75;;;6.40;99.90;;;;;;4973764;28;20272;-82
2022/04/22 01:12:49;;;;;;;24.10;13.10;;;6.20;99.90;;;;;;4966542;28;20251;-81
2022/04/22 01:15:16;;;;;;;20.30;13.67;;;6.00;99.90;;;;;;4969149;28;20450;-85
2022/04/22 01:17:41;;;;;;;22.10;13.00;;;5.80;99.90;;;;;;4967767;28;20216;-84
2022/04/22 01:20:07;;;;;;;25.80;14.33;;;5.80;99.90;;;;;;4969461;28;20188;-86
2022/04/22 01:22:33;;;;;;;25.30;15.33;;;;;;;;;;4985802;28;20211;-86
2022/04/22 01:25:01;;;;;;;28.73;16.13;;;5.90;99.90;;;;;;4968433;28;20444;-83
2022/04/22 01:27:29;;;;;;;32.85;16.38;;;6.10;99.90;;;;;;4968866;28;20471;-85
2022/04/22 01:29:56;;;;;;;28.70;15.98;;;6.30;99.90;;;;;;4966367;28;20307;-87
2022/04/22 01:32:23;;;;;;;28.30;17.20;;;6.50;99.90;;;;;;4966495;28;20180;-83
2022/04/22 01:34:48;;;;;;;23.73;13.82;;;6.50;99.90;;;;;;4964547;28;20191;-82
2022/04/22 01:37:14;;;;;;;23.40;13.90;;;;;;;;;;4970865;28;20226;-84
2022/04/22 01:39:40;;;;;;;25.10;13.52;;;6.20;99.90;;;;;;4965431;28;20216;-84
2022/04/22 01:42:06;;;;;;;24.37;14.10;;;5.90;99.90;;;;;;4964873;28;20188;-88
2022/04/22 01:44:34;;;;;;;28.73;14.63;;;5.80;99.90;;;;;;4983631;28;20207;-82
2022/04/22 01:47:00;;;;;;;30.27;14.70;;;5.70;99.90;;;;;;4975576;28;20218;-83
2022/04/22 01:49:25;;;;;;;27.73;15.13;;;5.70;99.90;;;;;;4990475;28;20239;-83
2022/04/22 01:51:53;;;;;;;25.80;14.70;;;5.60;99.90;;;;;;4967066;28;20192;-83
2022/04/22 01:54:19;;;;;;;30.65;15.63;;;5.70;99.90;;;;;;4970123;28;20219;-84
2022/04/22 01:56:44;;;;;;;21.93;14.40;;;5.50;99.90;;;;;;4986425;28;20196;-87
2022/04/22 01:59:10;;;;;;;25.13;15.70;;;5.40;99.90;;;;;;4965910;28;20187;-83
2022/04/22 02:01:35;;;;;;;23.90;15.17;;;5.40;99.90;;;;;;4965634;28;20191;-84
2022/04/22 02:04:01;;;;;;;28.60;15.53;;;;;;;;;;4964597;28;20215;-80
2022/04/22 02:06:28;;;;;;;29.73;17.17;;;5.10;99.90;;;;;;4985102;28;20223;-85
2022/04/22 02:08:54;;;;;;;31.45;17.27;;;5.10;99.90;;;;;;4967247;28;20459;-86
2022/04/22 02:11:19;;;;;;;35.00;17.30;;;5.10;99.90;;;;;;4969991;28;20988;-82
2022/04/22 02:13:45;;;;;;;26.27;16.00;;;5.00;99.90;;;;;;4971725;28;20777;-87
2022/04/22 02:16:11;;;;;;;26.47;15.77;;;;;;;;;;4971920;28;20183;-88
2022/04/22 02:18:38;;;;;;;31.95;17.08;;;5.00;99.90;;;;;;4967119;28;20262;-81
2022/04/22 02:21:05;;;;;;;30.95;17.38;;;4.90;99.90;;;;;;4957422;28;20183;-84
2022/04/22 02:23:31;;;;;;;33.78;17.33;;;4.90;99.90;;;;;;4968957;28;20188;-85
2022/04/22 02:25:56;;;;;;;27.17;17.30;;;4.90;99.90;;;;;;4965843;28;20180;-82
2022/04/22 02:28:34;;;;;;;30.70;17.93;;;4.90;99.90;;;;;;4965378;28;20470;-87
2022/04/22 02:31:08;;;;;;;31.33;18.27;;;4.90;99.90;;;;;;4966018;28;20184;-84
2022/04/22 02:33:36;;;;;;;34.83;18.95;;;4.90;99.90;;;;;;4984069;28;20176;-88
2022/04/22 02:36:03;;;;;;;34.85;20.98;;;4.80;99.90;;;;;;4960022;28;20179;-84
2022/04/22 02:38:30;;;;;;;33.80;17.95;;;4.80;99.90;;;;;;4967317;28;20204;-86
2022/04/22 02:46:27;;;;;;;39.72;21.77;;;4.90;99.90;;;;;;4962096;28;20222;-81
2022/04/22 02:48:59;;;;;;;43.40;22.33;;;5.00;99.90;;;;;;4956745;28;20195;-86
2022/04/22 02:51:25;;;;;;;46.30;21.80;;;5.20;99.90;;;;;;4964546;28;21495;-87
2022/04/22 02:53:52;;;;;;;38.85;20.40;;;5.30;99.90;;;;;;4960879;28;20270;-85
2022/04/22 02:56:19;;;;;;;34.65;19.90;;;5.30;99.90;;;;;;4975321;28;20270;-89
2022/04/22 02:58:44;;;;;;;35.33;20.38;;;3.10;99.90;;;;;;4966068;28;20605;-84
2022/04/22 03:01:10;;;;;;;31.83;19.57;;;5.40;99.90;;;;;;4969093;28;20202;-86
2022/04/22 03:03:36;;;;;;;30.67;17.80;;;;;;;;;;4960639;28;20192;-82
2022/04/22 03:06:03;;;;;;;35.88;19.83;;;5.00;99.90;;;;;;4964967;28;20186;-86
2022/04/22 03:08:28;;;;;;;34.75;20.02;;;4.90;99.90;;;;;;4983691;28;20211;-82
2022/04/22 03:10:55;;;;;;;37.70;20.50;;;;;;;;;;4973215;28;20247;-82
2022/04/22 03:13:20;;;;;;;31.27;19.55;;;4.90;99.90;;;;;;4989863;28;20187;-84
2022/04/22 03:15:47;;;;;;;30.00;18.53;;;4.90;99.90;;;;;;4967346;28;20625;-87
2022/04/22 03:18:12;;;;;;;34.35;18.40;;;4.80;99.90;;;;;;4964289;28;21040;-86
2022/04/22 03:20:38;;;;;;;35.10;19.63;;;4.70;99.90;;;;;;4961672;28;20180;-84
2022/04/22 03:23:04;;;;;;;40.07;20.50;;;5.90;99.90;;;;;;4956432;28;20207;-84
2022/04/22 03:25:30;;;;;;;49.47;23.03;;;;;;;;;;4965284;28;20235;-86
2022/04/22 03:27:56;;;;;;;41.30;21.97;;;;;;;;;;4960526;28;20487;-88
2022/04/22 03:30:22;;;;;;;41.50;21.57;;;;;;;;;;4965966;28;20439;-83
2022/04/22 03:32:47;;;;;;;42.53;21.33;;;4.60;99.90;;;;;;4958978;28;20467;-85
2022/04/22 03:35:13;;;;;;;45.33;23.10;;;;;;;;;;4963516;28;20447;-81
2022/04/22 03:37:41;;;;;;;42.03;21.77;;;4.50;99.90;;;;;;4955939;28;20215;-84
2022/04/22 03:40:09;;;;;;;36.13;22.27;;;4.40;99.90;;;;;;4968335;28;20183;-81
2022/04/22 03:42:35;;;;;;;58.65;23.73;;;4.50;99.90;;;;;;4963085;28;20202;-88
2022/04/22 03:45:01;;;;;;;45.58;23.58;;;4.50;99.90;;;;;;4962099;28;20188;-84
2022/04/22 03:47:27;;;;;;;39.60;23.20;;;;;;;;;;4965641;28;20231;-84
2022/04/22 03:49:52;;;;;;;38.73;22.07;;;4.40;99.90;;;;;;4963756;28;20184;-84
2022/04/22 03:52:18;;;;;;;36.17;22.00;;;;;;;;;;4964632;28;20474;-87
2022/04/22 03:54:44;;;;;;;50.43;23.03;;;4.50;99.90;;;;;;4964791;28;20624;-86
2022/04/22 03:59:54;;;;;;;39.08;22.15;;;4.40;99.90;;;;;;4970524;28;20178;-87
2022/04/22 04:02:20;;;;;;;37.70;22.20;;;4.30;99.90;;;;;;4971991;28;20762;-84
2022/04/22 04:04:46;;;;;;;42.58;23.13;;;4.30;99.90;;;;;;4965636;28;20188;-86
2022/04/22 04:07:12;;;;;;;44.28;24.25;;;4.30;99.90;;;;;;4967063;28;20212;-86
2022/04/22 04:17:50;;;;;;;47.95;23.73;;;4.30;99.90;;;;;;4971025;28;20248;-85
2022/04/22 04:23:15;;;;;;;47.50;25.00;;;4.30;99.90;;;;;;4955785;28;20199;-82
2022/04/22 04:25:47;;;;;;;51.53;24.42;;;4.30;99.90;;;;;;4961723;28;20941;-82
2022/04/22 04:28:15;;;;;;;53.45;25.10;;;4.30;99.90;;;;;;4985504;28;20702;-81
2022/04/22 04:30:42;;;;;;;52.97;26.75;;;4.40;99.90;;;;;;4956861;28;20184;-84
2022/04/22 04:33:08;;;;;;;57.75;27.45;;;4.50;99.90;;;;;;4982016;28;20290;-80
2022/04/22 04:35:35;;;;;;;49.05;27.08;;;5.50;99.90;;;;;;4982248;28;20348;-78
2022/04/22 04:38:01;;;;;;;52.85;27.00;;;4.70;99.90;;;;;;4985101;28;20309;-84
2022/04/22 04:40:27;;;;;;;48.70;25.55;;;4.60;99.90;;;;;;4955495;28;20184;-84
2022/04/22 04:42:53;;;;;;;51.70;25.53;;;4.70;99.90;;;;;;4967682;28;20725;-83
2022/04/22 04:45:19;;;;;;;50.13;27.98;;;5.00;99.90;;;;;;4968657;28;20589;-85
2022/04/22 04:47:45;;;;;;;55.67;27.25;;;5.30;99.90;;;;;;4972765;28;20230;-82
2022/04/22 04:50:11;;;;;;;53.10;26.37;;;5.60;99.90;;;;;;4960335;28;20200;-81
2022/04/22 04:52:37;;;;;;;63.30;28.70;;;6.00;99.90;;;;;;4959668;28;20243;-84
2022/04/22 04:55:11;;;;;;;52.30;27.20;;;6.20;99.90;;;;;;4958030;28;20311;-85
2022/04/22 04:57:36;;;;;;;61.00;31.63;;;6.40;99.90;;;;;;4977101;28;20216;-85
2022/04/22 05:00:07;;;;;;;56.00;27.70;;;6.80;99.90;;;;;;4968857;28;20250;-84
2022/04/22 05:02:33;;;;;;;49.30;26.20;;;7.20;99.90;;;;;;4970121;28;20671;-82
2022/04/22 05:04:58;;;;;;;49.43;25.83;;;7.50;99.90;;;;;;4983361;28;20231;-85
2022/04/22 05:07:24;;;;;;;45.80;25.00;;;7.60;99.90;;;;;;4963797;28;20218;-84
2022/04/22 05:09:49;;;;;;;37.60;22.87;;;8.00;99.90;;;;;;4962126;28;20184;-85
2022/04/22 05:12:15;;;;;;;39.63;23.93;;;8.20;99.90;;;;;;4961706;28;20180;-85
2022/04/22 05:14:40;;;;;;;34.73;19.57;;;8.30;99.90;;;;;;4964063;28;20855;-81
2022/04/22 05:17:06;;;;;;;31.20;19.73;;;8.20;99.90;;;;;;4960210;28;20199;-84
2022/04/22 05:19:31;;;;;;;39.63;22.27;;;8.10;99.90;;;;;;4944824;28;20694;-84
2022/04/22 05:21:57;;;;;;;43.53;23.13;;;7.90;99.90;;;;;;4959210;28;20176;-83
2022/04/22 05:24:22;;;;;;;35.57;20.97;;;7.80;99.90;;;;;;4978180;28;20211;-85
2022/04/22 05:26:48;;;;;;;40.13;23.27;;;10.20;99.90;;;;;;4962940;28;20227;-84
2022/04/22 05:34:43;;;;;;;36.03;19.55;;;;;;;;;;4962951;28;20237;-85
2022/04/22 05:37:09;;;;;;;35.00;21.17;;;13.50;99.90;;;;;;4964401;28;20239;-84
2022/04/22 05:39:34;;;;;;;28.27;19.60;;;14.90;99.90;;;;;;4975398;28;20959;-85
2022/04/22 05:42:01;;;;;;;33.53;19.73;;;16.30;99.90;;;;;;4958987;28;20188;-84
2022/04/22 05:44:27;;;;;;;30.67;19.33;;;17.40;99.90;;;;;;4953952;28;20439;-83
2022/04/22 05:46:53;;;;;;;29.63;20.20;;;17.40;99.90;;;;;;4962510;28;20987;-84
2022/04/22 05:49:19;;;;;;;27.80;19.00;;;17.90;99.90;;;;;;4965012;28;20511;-86
2022/04/22 05:51:44;;;;;;;29.80;20.73;;;18.60;99.90;;;;;;4964948;28;20671;-81
2022/04/22 05:54:10;;;;;;;31.33;20.00;;;18.80;99.90;;;;;;4979345;28;20219;-83
2022/04/22 05:56:36;;;;;;;31.20;19.80;;;;;;;;;;4979893;28;20203;-82
2022/04/22 05:59:02;;;;;;;28.50;20.43;;;20.20;98.90;;;;;;4983903;28;20203;-81
2022/04/22 06:01:28;;;;;;;25.70;18.03;;;;;;;;;;4987399;28;20442;-80
2022/04/22 06:03:54;;;;;;;30.00;20.60;;;21.50;93.40;;;;;;4966727;28;20195;-85
2022/04/22 06:06:20;;;;;;;27.43;20.13;;;;;;;;;;4969165;28;20443;-81
2022/04/22 06:11:29;;;;;;;31.43;20.40;;;23.70;85.10;;;;;;4967129;28;20485;-80
2022/04/22 06:13:55;;;;;;;26.20;19.67;;;23.50;78.00;;;;;;4967233;28;20423;-80
2022/04/22 06:16:21;;;;;;;25.73;18.87;;;21.80;78.20;;;;;;5001655;28;20191;-80
2022/04/22 06:18:47;;;;;;;27.53;20.07;;;20.00;81.90;;;;;;4982343;28;20526;-79
2022/04/22 06:21:13;;;;;;;29.00;19.30;;;18.50;85.30;;;;;;4980396;28;21714;-83
2022/04/22 06:23:38;;;;;;;31.03;20.47;;;16.90;90.40;;;;;;4966128;28;20443;-82
2022/04/22 06:26:05;;;;;;;31.57;19.30;;;15.60;94.90;;;;;;4963891;28;20605;-85
2022/04/22 06:28:33;;;;;;;30.57;20.20;;;15.70;96.90;;;;;;4961382;28;20230;-84
2022/04/22 06:30:58;;;;;;;30.40;19.83;;;16.50;96.70;;;;;;4961071;28;20509;-87
2022/04/22 06:33:24;;;;;;;25.53;18.37;;;16.90;96.50;;;;;;4977127;28;20443;-81
2022/04/22 06:35:50;;;;;;;24.67;17.17;;;17.00;96.20;;;;;;4964078;28;20187;-85
2022/04/22 06:38:17;;;;;;;29.43;18.87;;;17.40;96.00;;;;;;4966564;28;20208;-82
2022/04/22 06:46:13;;;;;;;28.87;18.00;;;18.40;92.50;;;;;;4967505;28;20435;-86
2022/04/22 06:48:39;;;;;;;25.77;18.40;;;18.60;92.80;;;;;;4964977;28;20483;-86
2022/04/22 06:51:07;;;;;;;28.27;18.00;;;19.30;92.00;;;;;;4963828;28;20467;-85
2022/04/22 06:53:34;;;;;;;28.67;19.10;;;18.90;91.00;;;;;;4955801;28;20284;-81
2022/04/22 06:56:02;;;;;;;26.77;18.43;;;17.50;90.70;;;;;;4959865;28;20439;-85
2022/04/22 06:58:30;;;;;;;24.13;18.10;;;16.30;93.10;;;;;;4962812;28;20566;-85
2022/04/22 07:00:56;;;;;;;31.10;19.75;;;15.50;95.00;;;;;;4958200;28;20522;-83
2022/04/22 07:03:22;;;;;;;27.80;19.20;;;14.90;96.80;;;;;;4972602;28;20275;-86
2022/04/22 07:05:49;;;;;;;26.50;17.13;;;15.20;97.60;;;;;;4964690;28;20993;-84
2022/04/22 07:08:17;;;;;;;25.70;16.60;;;16.40;97.60;;;;;;4963817;28;20474;-83
2022/04/22 07:10:45;;;;;;;22.67;16.63;;;17.10;95.10;;;;;;4966604;28;21274;-86
2022/04/22 07:13:11;;;;;;;26.50;18.10;;;17.90;93.70;;;;;;4966262;28;21112;-85
2022/04/22 07:15:42;;;;;;;21.87;16.00;;;18.50;94.00;;;;;;4962689;28;20523;-82
2022/04/22 07:18:08;;;;;;;24.67;16.23;;;19.60;92.10;;;;;;4965596;28;20840;-85
2022/04/22 07:20:34;;;;;;;24.50;15.97;;;19.50;90.70;;;;;;4964163;28;20446;-84
2022/04/22 07:23:01;;;;;;;25.03;16.27;;;20.20;90.10;;;;;;4966225;28;20578;-82
2022/04/22 07:25:28;;;;;;;24.00;17.10;;;20.90;88.30;;;;;;4963616;28;20450;-83
2022/04/22 07:27:54;;;;;;;30.10;16.10;;;22.00;84.60;;;;;;4970336;28;20470;-82
2022/04/22 07:30:21;;;;;;;22.17;16.40;;;21.30;79.10;;;;;;4952174;28;20480;-84
2022/04/22 07:32:49;;;;;;;26.57;16.27;;;21.20;80.20;;;;;;4939305;28;20467;-85
2022/04/22 07:35:20;;;;;;;21.30;15.50;;;19.10;82.30;;;;;;4942533;28;20439;-83
2022/04/22 07:37:50;;;;;;;28.20;17.20;;;17.80;88.30;;;;;;4942899;28;20466;-82
2022/04/22 07:40:19;;;;;;;25.77;18.17;;;16.80;91.60;;;;;;4944309;28;20447;-86
2022/04/22 07:48:25;;;;;;;23.70;17.80;;;17.70;92.80;;;;;;4944619;28;20490;-84
2022/04/22 07:50:52;;;;;;;22.63;15.40;;;18.60;92.20;;;;;;4941551;28;20446;-81
2022/04/22 07:53:19;;;;;;;27.53;17.03;;;;;;;;;;4947923;28;20440;-88
2022/04/22 07:55:45;;;;;;;26.70;17.40;;;19.20;90.10;;;;;;4944013;28;20443;-84
2022/04/22 07:58:13;;;;;;;28.10;17.93;;;19.80;90.30;;;;;;4950410;28;20468;-86
2022/04/22 08:00:43;;;;;;;24.37;16.07;;;18.40;90.50;;;;;;4950640;28;20436;-84
2022/04/22 08:03:09;;;;;;;26.33;16.80;;;19.90;87.70;;;;;;4948314;28;20435;-83
2022/04/22 08:05:37;;;;;;;25.07;18.17;;;19.80;86.20;;;;;;4949678;28;21318;-87
2022/04/22 08:08:02;;;;;;;20.63;15.70;;;19.80;84.60;;;;;;4956405;28;20471;-83
2022/04/22 08:10:28;;;;;;;19.40;14.97;;;;;;;;;;4951383;28;20447;-85
2022/04/22 08:12:55;;;;;;;20.93;15.97;;;21.50;82.80;;;;;;4951989;28;20187;-85
2022/04/22 08:15:24;;;;;;;19.30;15.40;;;22.80;74.40;;;;;;4956148;28;20591;-85
2022/04/22 08:17:50;;;;;;;21.83;15.73;;;;;;;;;;4954790;28;20467;-84
2022/04/22 08:20:16;;;;;;;26.70;17.73;;;;;;;;;;4954454;28;20432;-85
2022/04/22 08:22:44;;;;;;;26.80;16.77;;;;;;;;;;4957817;28;20549;-88
2022/04/22 08:25:10;;;;;;;21.13;15.90;;;22.80;74.40;;;;;;4952211;28;20498;-85
2022/04/22 08:27:36;;;;;;;22.33;16.60;;;;;;;;;;4951909;28;20550;-87
2022/04/22 08:30:02;;;;;;;22.83;15.37;;;23.30;71.60;;;;;;4956479;28;20542;-87
2022/04/22 08:32:28;;;;;;;19.20;15.30;;;23.30;72.40;;;;;;4953895;28;20485;-88
2022/04/22 08:34:54;;;;;;;18.07;14.90;;;;;;;;;;4954481;28;20432;-88
2022/04/22 08:37:20;;;;;;;19.83;15.87;;;;;;;;;;4952849;28;20406;-85
2022/04/22 08:39:47;;;;;;;19.77;15.70;;;;;;;;;;4955063;28;20436;-86
2022/04/22 08:42:14;;;;;;;20.80;16.17;;;22.40;68.50;;;;;;4974395;28;21113;-87
2022/04/22 08:44:40;;;;;;;22.83;16.93;;;22.10;69.50;;;;;;4955926;28;20446;-87
2022/04/22 08:50:01;;;;;;;18.90;13.93;;;22.50;67.80;;;;;;4959608;28;20850;-86
2022/04/22 08:52:28;;;;;;;20.53;15.83;;;;;;;;;;4971957;28;20450;-87
2022/04/22 08:54:54;;;;;;;20.03;15.30;;;23.20;64.60;;;;;;4978932;28;20511;-86
2022/04/22 08:57:20;;;;;;;19.83;14.33;;;22.90;63.80;;;;;;4965967;28;20472;-89
2022/04/22 08:59:46;;;;;;;21.53;15.07;;;;;;;;;;4964216;28;20444;-88
2022/04/22 09:02:21;;;;;;;19.23;13.73;;;23.80;66.00;;;;;;4964697;28;20441;-90
2022/04/22 09:04:47;;;;;;;26.43;14.70;;;;;;;;;;4976452;28;20534;-87
2022/04/22 09:07:14;;;;;;;25.37;15.40;;;23.50;65.10;;;;;;4962033;28;20480;-90
2022/04/22 09:09:40;;;;;;;20.80;15.80;;;;;;;;;;4958999;28;20515;-87
2022/04/22 09:12:11;;;;;;;20.17;14.63;;;23.40;65.90;;;;;;4985564;28;20471;-89
2022/04/22 09:14:52;;;;;;;18.80;15.97;;;22.90;65.10;;;;;;4975496;28;20433;-88
2022/04/22 09:17:28;;;;;;;18.20;14.30;;;23.30;66.70;;;;;;4972388;28;20462;-89
2022/04/22 09:20:03;;;;;;;27.63;16.10;;;23.30;66.30;;;;;;4965129;28;20978;-88
2022/04/22 09:22:34;;;;;;;19.77;16.43;;;21.70;69.60;;;;;;4960792;28;20443;-87
2022/04/22 09:25:00;;;;;;;21.77;14.57;;;20.80;69.90;;;;;;4959815;28;20459;-87
2022/04/22 09:27:43;;;;;;;22.83;15.63;;;23.10;73.20;;;;;;4965281;28;20617;-86
2022/04/22 09:30:11;;;;;;;21.60;16.13;;;21.40;69.30;;;;;;4993401;28;20427;-86
2022/04/22 09:32:40;;;;;;;21.70;16.50;;;21.50;70.70;;;;;;4986080;28;20452;-85
2022/04/22 09:35:13;;;;;;;20.13;16.50;;;21.50;65.30;;;;;;4970431;28;20503;-87
2022/04/22 09:43:36;;;;;;;19.80;15.27;;;21.30;72.60;;;;;;4956253;28;20479;-85
2022/04/22 09:46:03;;;;;;;18.90;14.47;;;20.80;71.90;;;;;;4960255;28;20868;-89
2022/04/22 09:48:44;;;;;;;19.27;15.00;;;21.10;72.30;;;;;;4959729;28;20503;-84
2022/04/22 09:51:27;;;;;;;22.13;15.47;;;24.30;77.40;;;;;;4958556;28;20440;-88
2022/04/22 09:54:14;;;;;;;30.40;14.00;;;21.60;73.50;;;;;;4956802;28;20435;-87
2022/04/22 09:56:55;;;;;;;21.40;15.83;;;22.00;72.10;;;;;;4959360;28;20451;-86
2022/04/22 09:59:23;;;;;;;25.80;15.70;;;20.80;73.70;;;;;;4954825;28;20463;-87
2022/04/22 10:01:49;;;;;;;19.17;15.43;;;20.60;72.60;;;;;;4963893;28;20511;-87
2022/04/22 10:04:17;;;;;;;21.93;16.30;;;20.20;74.70;;;;;;4967704;28;20424;-88
2022/04/22 10:06:43;;;;;;;22.20;14.90;;;;;;;;;;4955704;28;21422;-87
2022/04/22 10:09:11;;;;;;;20.50;16.13;;;19.50;73.30;;;;;;4956264;28;20440;-88
2022/04/22 10:11:39;;;;;;;22.13;16.33;;;18.60;79.50;;;;;;4958310;28;20436;-84
2022/04/22 10:14:10;;;;;;;23.30;16.93;;;18.20;77.30;;;;;;4974847;28;20463;-86
2022/04/22 10:16:36;;;;;;;21.13;15.43;;;18.10;77.90;;;;;;4973343;28;20431;-88
2022/04/22 10:19:03;;;;;;;21.60;15.67;;;17.80;81.20;;;;;;4959836;28;20562;-87
2022/04/22 10:21:29;;;;;;;18.13;15.33;;;;;;;;;;4975037;28;20460;-85
2022/04/22 10:23:58;;;;;;;23.93;16.27;;;16.50;84.50;;;;;;4965697;28;20452;-86
2022/04/22 10:26:28;;;;;;;24.10;15.93;;;16.40;85.00;;;;;;4956310;28;20471;-86
2022/04/22 10:28:54;;;;;;;22.40;15.90;;;16.10;90.60;;;;;;4964214;28;20468;-87
2022/04/22 10:31:23;;;;;;;25.67;13.70;;;16.30;91.60;;;;;;4944368;28;20436;-85
2022/04/22 10:33:49;;;;;;;19.47;14.93;;;16.20;90.60;;;;;;4965307;28;20499;-87
2022/04/22 10:36:19;;;;;;;24.20;16.80;;;16.00;91.80;;;;;;4956492;28;20446;-86
2022/04/22 10:38:51;;;;;;;25.60;17.07;;;16.00;92.20;;;;;;4956641;28;20475;-87
2022/04/22 10:41:21;;;;;;;23.80;16.83;;;15.60;92.80;;;;;;4957628;28;20503;-85
2022/04/22 10:49:43;;;;;;;24.50;14.73;;;16.40;91.30;;;;;;4956484;28;20447;-84
2022/04/22 10:52:19;;;;;;;21.27;16.50;;;16.50;92.10;;;;;;4957082;28;20441;-88
2022/04/22 10:54:58;;;;;;;20.23;14.17;;;18.10;92.70;;;;;;4959288;28;20440;-86
2022/04/22 10:57:31;;;;;;;20.07;14.57;;;16.50;90.60;;;;;;4958860;28;20455;-86
2022/04/22 11:00:09;;;;;;;20.50;14.30;;;16.40;92.70;;;;;;4957411;28;20440;-87
2022/04/22 11:03:00;;;;;;;21.67;15.87;;;16.40;93.20;;;;;;4966506;28;20780;-87
2022/04/22 11:05:34;;;;;;;20.57;16.03;;;16.50;91.90;;;;;;4950509;29;20504;-87
2022/04/22 11:08:01;;;;;;;22.00;14.83;;;;;;;;;;4965056;28;20479;-87
2022/04/22 11:10:48;;;;;;;23.03;17.20;;;16.50;92.20;;;;;;4959459;28;20447;-88
2022/04/22 11:14:01;;;;;;;22.10;17.00;;;16.40;91.60;;;;;;4964942;28;20431;-86
2022/04/22 11:16:30;;;;;;;21.83;14.77;;;16.50;91.10;;;;;;4926354;29;20436;-87
2022/04/22 11:19:13;;;;;;;20.50;14.63;;;16.70;92.50;;;;;;4922728;29;20453;-85
2022/04/22 11:21:52;;;;;;;22.90;14.03;;;17.20;93.50;;;;;;4947203;28;20440;-89
2022/04/22 11:24:21;;;;;;;20.70;15.77;;;16.80;92.00;;;;;;4955654;28;20451;-87
2022/04/22 11:26:48;;;;;;;18.10;14.67;;;;;;;;;;4956454;28;20486;-87
2022/04/22 11:29:15;;;;;;;19.97;15.00;;;17.20;91.90;;;;;;4961528;28;20515;-89
2022/04/22 11:32:05;;;;;;;26.40;15.37;;;17.10;92.20;;;;;;4961601;28;21134;-83
2022/04/22 11:35:18;;;;;;;21.50;14.70;;;17.20;91.70;;;;;;4952907;28;20436;-87
2022/04/22 11:37:44;;;;;;;19.73;15.27;;;17.20;91.40;;;;;;4954156;28;20571;-89
2022/04/22 11:40:18;;;;;;;20.07;14.93;;;17.20;92.00;;;;;;4956505;28;20479;-88
2022/04/22 11:42:44;;;;;;;24.10;16.60;;;17.90;91.60;;;;;;4955236;28;20190;-87
2022/04/22 11:45:15;;;;;;;18.70;13.70;;;17.60;91.00;;;;;;4952388;28;20531;-86
2022/04/22 11:47:47;;;;;;;21.03;15.50;;;17.70;90.40;;;;;;4958718;28;20193;-85
2022/04/22 11:50:22;;;;;;;27.23;14.00;;;17.50;91.00;;;;;;4973345;28;20423;-85
2022/04/22 11:52:52;;;;;;;20.63;14.47;;;18.40;92.80;;;;;;4951603;28;20543;-86
2022/04/22 11:55:20;;;;;;;19.83;15.77;;;17.90;86.60;;;;;;4953691;28;20491;-89
2022/04/22 11:57:59;;;;;;;15.93;13.03;;;19.70;89.50;;;;;;4952654;28;20456;-86
2022/04/22 12:06:24;;;;;;;19.13;15.60;;;18.50;90.70;;;;;;4967342;28;20482;-87
2022/04/22 12:09:01;;;;;;;19.33;14.43;;;18.10;88.90;;;;;;4974522;28;20487;-85
2022/04/22 12:11:28;;;;;;;20.13;14.80;;;18.00;89.70;;;;;;4974074;28;20439;-85
2022/04/22 12:14:03;;;;;;;19.30;13.80;;;18.00;90.10;;;;;;4968460;28;20439;-87
2022/04/22 12:16:29;;;;;;;19.20;14.00;;;;;;;;;;4962501;28;20439;-86
2022/04/22 12:18:56;;;;;;;19.43;15.53;;;;;;;;;;4967233;28;20446;-86
2022/04/22 12:21:24;;;;;;;17.70;14.47;;;18.10;88.00;;;;;;4962047;28;20487;-86
2022/04/22 12:23:51;;;;;;;21.43;13.10;;;18.30;88.40;;;;;;4961793;28;20432;-86
2022/04/22 12:26:39;;;;;;;18.77;13.40;;;17.90;88.60;;;;;;4965302;28;20447;-86
2022/04/22 12:29:15;;;;;;;17.30;13.57;;;18.60;84.40;;;;;;4977846;28;20457;-86
2022/04/22 12:31:50;;;;;;;19.30;14.77;;;18.60;85.20;;;;;;4982002;28;20454;-84
2022/04/22 12:34:28;;;;;;;17.33;14.30;;;18.80;86.90;;;;;;4959386;28;20439;-86
2022/04/22 12:36:56;;;;;;;17.37;13.53;;;18.80;83.70;;;;;;4961231;28;20428;-84
2022/04/22 12:39:39;;;;;;;18.30;14.60;;;18.70;84.90;;;;;;4963113;28;20500;-87
2022/04/22 12:42:29;;;;;;;17.90;14.53;;;18.80;85.40;;;;;;4955744;28;20428;-85
2022/04/22 12:54:17;;;;;;;19.80;14.10;;;18.90;85.20;;;;;;4968627;28;20435;-89
2022/04/22 12:56:55;;;;;;;19.87;13.83;;;18.90;85.60;;;;;;4968349;28;20455;-88
2022/04/22 12:59:24;;;;;;;16.30;13.87;;;19.10;83.80;;;;;;4985448;28;20450;-88
2022/04/22 13:01:50;;;;;;;17.30;12.87;;;;;;;;;;4967997;29;20440;-90
2022/04/22 13:04:24;;;;;;;15.67;12.80;;;19.20;82.10;;;;;;4969236;29;20440;-88
2022/04/22 13:06:51;;;;;;;16.57;13.23;;;;;;;;;;4967661;28;20496;-84
2022/04/22 13:09:18;;;;;;;18.90;12.30;;;19.40;81.30;;;;;;4960991;28;20424;-87
2022/04/22 13:11:56;;;;;;;19.80;15.27;;;19.60;80.70;;;;;;4966456;28;20451;-87
2022/04/22 13:14:22;;;;;;;25.33;13.90;;;;;;;;;;4967984;28;20467;-85
2022/04/22 13:16:52;;;;;;;18.80;12.80;;;19.50;79.30;;;;;;4977087;28;20432;-87
2022/04/22 13:19:21;;;;;;;20.60;14.47;;;19.30;78.10;;;;;;4967606;28;20451;-86
2022/04/22 13:21:47;;;;;;;22.30;13.30;;;;;;;;;;4964898;28;20490;-88
2022/04/22 13:24:13;;;;;;;17.33;12.30;;;;;;;;;;4964181;28;20439;-87
2022/04/22 13:26:40;;;;;;;23.20;12.30;;;;;;;;;;4963389;28;20473;-88
2022/04/22 13:29:06;;;;;;;18.73;13.67;;;;;;;;;;4965706;28;20494;-87
2022/04/22 13:31:33;;;;;;;19.20;13.17;;;;;;;;;;4961503;28;20459;-88
2022/04/22 13:34:01;;;;;;;19.73;14.63;;;;;;;;;;4964543;28;20483;-86
2022/04/22 13:36:27;;;;;;;15.50;11.37;;;19.70;79.10;;;;;;4979178;28;20516;-86
2022/04/22 13:38:58;;;;;;;16.20;13.40;;;19.80;78.70;;;;;;4960604;28;20498;-88
2022/04/22 13:41:24;;;;;;;17.17;13.03;;;;;;;;;;4963724;28;20621;-87
2022/04/22 13:43:50;;;;;;;15.70;11.87;;;;;;;;;;4962129;28;20443;-86
2022/04/22 13:54:30;;;;;;;15.67;11.27;;;19.80;74.60;;;;;;4976288;28;20451;-87
2022/04/22 13:56:56;;;;;;;19.93;12.20;;;19.80;73.20;;;;;;4955972;28;20523;-84
2022/04/22 13:59:24;;;;;;;17.83;10.27;;;19.80;73.80;;;;;;4960269;28;20506;-87
2022/04/22 14:01:54;;;;;;;14.93;10.87;;;20.20;71.10;;;;;;4962228;28;20402;-87
2022/04/22 14:04:22;;;;;;;14.53;11.60;;;;;;;;;;4977995;28;20432;-86
2022/04/22 14:06:51;;;;;;;13.40;11.10;;;20.00;72.50;;;;;;4976685;28;20436;-86
2022/04/22 14:09:16;;;;;;;17.53;11.77;;;20.00;73.90;;;;;;4960815;28;20812;-88
2022/04/22 14:11:46;;;;;;;14.27;10.70;;;20.00;71.70;;;;;;4957596;28;20441;-86
2022/04/22 14:14:12;;;;;;;24.47;11.90;;;;;;;;;;4964355;28;20180;-86
2022/04/22 14:16:37;;;;;;;14.50;10.63;;;20.30;70.70;;;;;;4962392;28;20451;-85
2022/04/22 14:19:04;;;;;;;10.73;9.60;;;;;;;;;;4961244;28;20452;-87